createdAt,value
2022-12-26T00:00:58.037Z,19.17
2022-12-26T00:03:25.421Z,18.57
2022-12-26T00:05:52.877Z,20.73
2022-12-26T00:08:20.048Z,20.20
2022-12-26T00:10:49.960Z,20.40
2022-12-26T00:13:38.681Z,18.93
2022-12-26T00:16:11.503Z,22.70
2022-12-26T00:18:39.266Z,18.87
2022-12-26T00:21:10.141Z,17.27
2022-12-26T00:23:37.883Z,16.90
2022-12-26T00:26:09.799Z,19.07
2022-12-26T00:28:37.340Z,16.60
2022-12-26T00:31:05.524Z,17.50
2022-12-26T00:33:34.093Z,15.87
2022-12-26T00:36:02.825Z,16.30
2022-12-26T00:38:30.014Z,15.70
2022-12-26T00:40:57.222Z,17.67
2022-12-26T00:43:24.370Z,17.03
2022-12-26T00:45:51.570Z,17.37
2022-12-26T00:48:18.826Z,15.50
2022-12-26T00:50:46.374Z,14.47
2022-12-26T00:53:13.801Z,13.27
2022-12-26T00:55:41.374Z,15.43
2022-12-26T00:58:08.549Z,17.50
2022-12-26T01:00:36.409Z,12.27
2022-12-26T01:03:04.425Z,15.07
2022-12-26T01:05:31.907Z,14.43
2022-12-26T01:08:21.030Z,14.80
2022-12-26T01:10:48.178Z,12.90
2022-12-26T01:13:16.131Z,14.53
2022-12-26T01:15:48.614Z,13.63
2022-12-26T01:18:16.076Z,13.67
2022-12-26T01:20:43.342Z,12.43
2022-12-26T01:23:10.495Z,11.60
2022-12-26T01:25:37.653Z,11.63
2022-12-26T01:28:24.956Z,13.63
2022-12-26T01:30:52.151Z,12.73
2022-12-26T01:33:19.313Z,14.27
2022-12-26T01:35:50.126Z,12.57
2022-12-26T01:38:19.636Z,13.77
2022-12-26T01:40:46.991Z,13.93
2022-12-26T01:43:15.473Z,13.40
2022-12-26T01:45:43.867Z,13.90
2022-12-26T01:48:16.953Z,14.60
2022-12-26T01:50:56.397Z,14.47
2022-12-26T01:53:26.426Z,12.83
2022-12-26T01:55:55.622Z,13.10
2022-12-26T01:58:26.124Z,13.37
2022-12-26T02:00:53.599Z,11.60
2022-12-26T02:03:39.409Z,13.50
2022-12-26T02:06:07.836Z,14.33
2022-12-26T02:08:35.969Z,12.03
2022-12-26T02:11:13.259Z,11.97
2022-12-26T02:13:41.185Z,11.80
2022-12-26T02:16:10.174Z,12.30
2022-12-26T02:18:37.358Z,15.13
2022-12-26T02:21:16.082Z,12.50
2022-12-26T02:23:43.327Z,12.97
2022-12-26T02:26:29.469Z,13.63
2022-12-26T02:29:02.583Z,15.30
2022-12-26T02:31:30.453Z,14.00
2022-12-26T02:33:57.630Z,13.73
2022-12-26T02:36:37.863Z,11.33
2022-12-26T02:39:44.062Z,12.23
2022-12-26T02:42:17.272Z,11.07
2022-12-26T02:45:04.620Z,10.90
2022-12-26T02:47:37.531Z,10.70
2022-12-26T02:50:29.541Z,11.43
2022-12-26T02:53:25.036Z,11.90
2022-12-26T02:56:13.300Z,12.63
2022-12-26T02:59:11.326Z,11.50
2022-12-26T03:02:00.141Z,14.03
2022-12-26T03:04:47.531Z,10.97
2022-12-26T03:07:35.821Z,9.60
2022-12-26T03:10:25.537Z,11.93
2022-12-26T03:13:11.087Z,10.23
2022-12-26T03:16:13.056Z,11.60
2022-12-26T03:18:56.930Z,11.03
2022-12-26T03:21:29.623Z,11.80
2022-12-26T03:23:57.259Z,10.57
2022-12-26T03:26:39.901Z,12.47
2022-12-26T03:29:43.722Z,12.10
2022-12-26T03:32:12.463Z,11.90
2022-12-26T03:34:44.251Z,11.43
2022-12-26T03:37:47.930Z,11.07
2022-12-26T03:40:35.480Z,11.50
2022-12-26T03:43:40.391Z,12.37
2022-12-26T03:46:38.389Z,10.87
2022-12-26T03:49:24.286Z,13.00
2022-12-26T03:52:15.970Z,12.23
2022-12-26T03:55:22.277Z,12.73
2022-12-26T03:58:11.332Z,10.90
2022-12-26T04:00:59.445Z,9.77
2022-12-26T04:03:47.693Z,11.03
2022-12-26T04:06:39.335Z,8.60
2022-12-26T04:09:28.459Z,9.50
2022-12-26T04:12:16.398Z,10.90
2022-12-26T04:15:05.523Z,9.53
2022-12-26T04:17:54.346Z,10.40
2022-12-26T04:20:36.115Z,10.97
2022-12-26T04:23:28.534Z,11.20
2022-12-26T04:26:24.465Z,11.63
2022-12-26T04:29:10.539Z,12.97
2022-12-26T04:32:06.915Z,13.97
2022-12-26T04:35:06.761Z,11.07
2022-12-26T04:37:54.156Z,12.40
2022-12-26T04:40:43.858Z,13.63
2022-12-26T04:43:49.689Z,12.23
2022-12-26T04:46:18.300Z,12.57
2022-12-26T04:49:05.762Z,13.47
2022-12-26T04:51:33.523Z,11.50
2022-12-26T04:54:00.757Z,12.60
2022-12-26T04:56:27.911Z,10.80
2022-12-26T04:58:55.099Z,11.93
2022-12-26T05:01:41.266Z,13.30
2022-12-26T05:04:32.259Z,13.63
2022-12-26T05:07:19.082Z,15.43
2022-12-26T05:09:46.625Z,11.17
2022-12-26T05:12:13.834Z,12.40
2022-12-26T05:14:41.038Z,13.10
2022-12-26T05:17:30.497Z,14.73
2022-12-26T05:20:16.854Z,13.40
2022-12-26T05:23:03.294Z,12.50
2022-12-26T05:25:53.367Z,11.43
2022-12-26T05:28:39.525Z,12.27
2022-12-26T05:31:06.993Z,13.63
2022-12-26T05:33:52.707Z,11.93
2022-12-26T05:36:21.284Z,13.90
2022-12-26T05:38:49.064Z,13.63
2022-12-26T05:41:16.627Z,15.07
2022-12-26T05:43:44.007Z,18.97
2022-12-26T05:46:11.304Z,17.67
2022-12-26T05:48:38.573Z,15.20
2022-12-26T05:51:06.032Z,14.37
2022-12-26T05:53:33.252Z,14.27
2022-12-26T05:56:04.825Z,15.67
2022-12-26T05:58:33.482Z,16.87
2022-12-26T06:01:11.462Z,15.90
2022-12-26T06:03:39.426Z,16.60
2022-12-26T06:06:07.521Z,17.10
2022-12-26T06:08:34.745Z,18.33
2022-12-26T06:11:05.717Z,19.60
2022-12-26T06:13:33.030Z,17.10
2022-12-26T06:16:00.288Z,18.00
2022-12-26T06:18:27.637Z,16.60
2022-12-26T06:20:54.912Z,16.50
2022-12-26T06:23:22.083Z,18.80
2022-12-26T06:25:54.443Z,15.97
2022-12-26T06:28:22.127Z,19.17
2022-12-26T06:30:49.291Z,19.37
2022-12-26T06:33:16.602Z,17.53
2022-12-26T06:35:44.004Z,19.43
2022-12-26T06:38:11.342Z,17.60
2022-12-26T06:40:41.871Z,18.23
2022-12-26T06:43:09.390Z,17.93
2022-12-26T06:45:36.872Z,19.00
2022-12-26T06:48:04.144Z,18.67
2022-12-26T06:50:31.386Z,19.43
2022-12-26T06:52:58.596Z,18.20
2022-12-26T06:55:25.752Z,20.50
2022-12-26T06:57:53.765Z,19.60
2022-12-26T07:00:20.911Z,20.20
2022-12-26T07:02:51.549Z,17.87
2022-12-26T07:05:18.959Z,18.90
2022-12-26T07:07:51.270Z,18.53
2022-12-26T07:10:18.716Z,20.03
2022-12-26T07:12:46.054Z,22.27
2022-12-26T07:15:13.653Z,23.27
2022-12-26T07:17:40.899Z,21.83
2022-12-26T07:20:09.117Z,21.20
2022-12-26T07:22:36.434Z,22.77
2022-12-26T07:25:03.627Z,19.83
2022-12-26T07:27:30.861Z,24.30
2022-12-26T07:29:58.048Z,23.00
2022-12-26T07:32:25.343Z,23.27
2022-12-26T07:34:52.664Z,23.40
2022-12-26T07:37:19.897Z,22.43
2022-12-26T07:39:47.016Z,22.47
2022-12-26T07:42:14.140Z,25.40
2022-12-26T07:44:42.083Z,23.00
2022-12-26T07:47:09.211Z,23.50
2022-12-26T07:49:36.687Z,24.60
2022-12-26T07:52:04.298Z,26.33
2022-12-26T07:54:32.575Z,24.30
2022-12-26T07:57:21.990Z,21.70
2022-12-26T07:59:47.211Z,25.50
2022-12-26T08:02:14.649Z,23.47
2022-12-26T08:04:42.175Z,23.27
2022-12-26T08:07:09.405Z,26.40
2022-12-26T08:09:38.386Z,24.37
2022-12-26T08:12:05.653Z,23.77
2022-12-26T08:14:32.828Z,25.77
2022-12-26T08:17:00.360Z,22.30
2022-12-26T08:19:27.991Z,21.37
2022-12-26T08:21:55.160Z,22.40
2022-12-26T08:24:22.313Z,24.10
2022-12-26T08:26:49.597Z,22.50
2022-12-26T08:29:16.774Z,21.70
2022-12-26T08:31:44.042Z,25.13
2022-12-26T08:34:11.693Z,22.67
2022-12-26T08:36:38.884Z,21.20
2022-12-26T08:39:06.112Z,22.40
2022-12-26T08:41:33.603Z,24.90
2022-12-26T08:44:26.853Z,24.23
2022-12-26T08:46:48.856Z,23.00
2022-12-26T08:49:17.291Z,20.23
2022-12-26T08:51:44.439Z,23.17
2022-12-26T08:54:11.921Z,24.90
2022-12-26T08:56:39.268Z,20.83
2022-12-26T08:59:06.450Z,21.60
2022-12-26T09:01:36.354Z,18.10
2022-12-26T09:04:04.753Z,17.57
2022-12-26T09:06:36.109Z,14.67
2022-12-26T09:09:04.080Z,14.43
2022-12-26T09:11:31.661Z,14.00
2022-12-26T09:14:00.807Z,12.87
2022-12-26T09:16:37.763Z,12.03
2022-12-26T09:19:06.790Z,12.93
2022-12-26T09:21:34.501Z,13.73
2022-12-26T09:24:04.974Z,11.60
2022-12-26T09:26:32.552Z,15.23
2022-12-26T09:28:59.877Z,17.47
2022-12-26T09:31:28.391Z,20.87
2022-12-26T09:33:58.321Z,22.57
2022-12-26T09:36:27.181Z,22.90
2022-12-26T09:38:56.190Z,18.47
2022-12-26T09:41:38.553Z,16.87
2022-12-26T09:44:15.581Z,14.23
2022-12-26T09:46:42.779Z,13.90
2022-12-26T09:49:10.060Z,13.20
2022-12-26T09:51:38.731Z,10.77
2022-12-26T09:54:07.676Z,10.23
2022-12-26T09:57:01.980Z,9.50
2022-12-26T09:59:26.244Z,9.40
2022-12-26T10:01:54.137Z,8.60
2022-12-26T10:04:30.407Z,8.27
2022-12-26T10:07:18.219Z,7.13
2022-12-26T10:10:04.165Z,8.10
2022-12-26T10:12:37.790Z,8.63
2022-12-26T10:15:24.702Z,7.27
2022-12-26T10:17:57.083Z,6.33
2022-12-26T10:20:29.678Z,8.33
2022-12-26T10:23:02.898Z,5.87
2022-12-26T10:25:37.731Z,6.03
2022-12-26T10:28:05.401Z,4.67
2022-12-26T10:30:38.380Z,4.37
2022-12-26T10:33:10.245Z,3.23
2022-12-26T10:35:42.908Z,3.50
2022-12-26T10:38:22.663Z,3.73
2022-12-26T10:40:54.769Z,2.87
2022-12-26T10:43:25.767Z,2.20
2022-12-26T10:45:58.907Z,2.63
2022-12-26T10:48:28.243Z,2.00
2022-12-26T10:50:55.988Z,2.67
2022-12-26T10:53:23.890Z,1.80
2022-12-26T10:55:51.393Z,1.97
2022-12-26T10:58:23.521Z,2.70
2022-12-26T11:00:50.780Z,1.30
2022-12-26T11:03:19.771Z,1.13
2022-12-26T11:08:47.760Z,1.10
2022-12-26T11:11:15.001Z,3.67
2022-12-26T11:13:49.973Z,1.60
2022-12-26T11:16:24.464Z,1.30
2022-12-26T11:18:52.133Z,1.10
2022-12-26T11:21:19.364Z,1.53
2022-12-26T11:23:47.487Z,4.13
2022-12-26T11:26:25.375Z,1.40
2022-12-26T11:29:29.179Z,1.53
2022-12-26T11:32:00.487Z,1.50
2022-12-26T11:34:34.540Z,1.23
2022-12-26T11:37:02.211Z,1.20
2022-12-26T11:39:36.622Z,1.10
2022-12-26T11:42:10.920Z,4.07
2022-12-26T11:44:41.098Z,1.30
2022-12-26T11:47:10.106Z,1.27
2022-12-26T11:49:40.226Z,1.23
2022-12-26T11:52:26.149Z,1.03
2022-12-26T11:54:53.385Z,1.03
2022-12-26T11:57:22.585Z,1.13
2022-12-26T11:59:50.413Z,1.23
2022-12-26T12:02:19.570Z,1.13
2022-12-26T12:04:47.605Z,1.00
2022-12-26T12:07:23.649Z,1.13
2022-12-26T12:09:54.947Z,1.20
2022-12-26T12:12:41.622Z,1.00
2022-12-26T12:15:14.489Z,0.80
2022-12-26T12:18:03.929Z,1.03
2022-12-26T12:20:36.920Z,1.37
2022-12-26T12:23:22.813Z,1.00
2022-12-26T12:25:53.007Z,0.90
2022-12-26T12:28:49.356Z,1.20
2022-12-26T12:31:19.555Z,1.13
2022-12-26T12:34:01.464Z,1.00
2022-12-26T12:36:28.821Z,1.23
2022-12-26T12:39:02.421Z,1.10
2022-12-26T12:41:42.101Z,1.20
2022-12-26T12:44:14.807Z,0.90
2022-12-26T12:46:45.125Z,0.90
2022-12-26T12:49:24.218Z,1.23
2022-12-26T12:51:57.562Z,0.90
2022-12-26T12:54:32.756Z,1.03
2022-12-26T12:57:18.925Z,0.90
2022-12-26T12:59:55.147Z,1.20
2022-12-26T13:02:26.442Z,1.10
2022-12-26T13:05:00.327Z,0.90
2022-12-26T13:07:43.316Z,1.10
2022-12-26T13:10:23.652Z,1.10
2022-12-26T13:12:51.890Z,1.30
2022-12-26T13:15:30.334Z,1.10
2022-12-26T13:18:17.985Z,1.00
2022-12-26T13:20:48.136Z,0.90
2022-12-26T13:23:52.874Z,1.07
2022-12-26T13:26:21.507Z,0.80
2022-12-26T13:29:01.794Z,0.70
2022-12-26T13:31:38.946Z,2.00
2022-12-26T13:34:10.192Z,1.67
2022-12-26T13:36:44.923Z,0.90
2022-12-26T13:39:32.442Z,0.90
2022-12-26T13:42:27.186Z,0.80
2022-12-26T13:44:54.409Z,1.00
2022-12-26T13:47:51.071Z,0.83
2022-12-26T13:50:36.936Z,0.90
2022-12-26T13:53:04.758Z,0.80
2022-12-26T13:55:42.124Z,0.70
2022-12-26T13:58:20.594Z,0.90
2022-12-26T14:00:48.982Z,5.00
2022-12-26T14:03:54.912Z,0.80
2022-12-26T14:06:27.832Z,2.10
2022-12-26T14:09:10.594Z,0.70
2022-12-26T14:11:38.028Z,0.70
2022-12-26T14:14:28.513Z,0.80
2022-12-26T14:16:59.273Z,1.00
2022-12-26T14:19:35.662Z,0.77
2022-12-26T14:22:23.041Z,0.80
2022-12-26T14:24:56.190Z,0.87
2022-12-26T14:27:33.723Z,0.80
2022-12-26T14:30:19.580Z,0.90
2022-12-26T14:32:49.953Z,0.80
2022-12-26T14:35:32.639Z,0.90
2022-12-26T14:38:00.011Z,0.70
2022-12-26T14:40:32.110Z,0.90
2022-12-26T14:43:27.137Z,0.80
2022-12-26T14:45:55.079Z,0.90
2022-12-26T14:48:22.425Z,0.80
2022-12-26T14:50:52.335Z,0.90
2022-12-26T14:53:22.381Z,0.97
2022-12-26T14:55:53.795Z,0.93
2022-12-26T14:58:27.002Z,0.87
2022-12-26T15:00:55.009Z,0.70
2022-12-26T15:03:33.517Z,1.00
2022-12-26T15:06:19.437Z,1.47
2022-12-26T15:08:49.948Z,1.20
2022-12-26T15:11:35.742Z,1.00
2022-12-26T15:14:16.697Z,0.80
2022-12-26T15:17:00.245Z,0.97
2022-12-26T15:19:42.618Z,1.00
2022-12-26T15:22:22.628Z,0.80
2022-12-26T15:25:18.155Z,0.80
2022-12-26T15:27:46.106Z,0.90
2022-12-26T15:30:13.249Z,0.73
2022-12-26T15:32:51.833Z,0.90
2022-12-26T15:35:26.357Z,0.90
2022-12-26T15:38:23.102Z,0.90
2022-12-26T15:40:56.554Z,0.90
2022-12-26T15:43:53.155Z,0.90
2022-12-26T15:46:30.525Z,1.00
2022-12-26T15:49:12.369Z,1.10
2022-12-26T15:51:39.660Z,1.00
2022-12-26T15:54:15.911Z,0.93
2022-12-26T15:56:55.238Z,1.10
2022-12-26T15:59:41.512Z,0.97
2022-12-26T16:02:16.379Z,1.00
2022-12-26T16:04:52.789Z,1.03
2022-12-26T16:07:41.492Z,1.00
2022-12-26T16:10:26.908Z,1.10
2022-12-26T16:13:04.677Z,1.00
2022-12-26T16:15:33.107Z,1.00
2022-12-26T16:18:15.634Z,1.10
2022-12-26T16:21:01.685Z,1.30
2022-12-26T16:23:31.613Z,0.90
2022-12-26T16:26:02.862Z,1.10
2022-12-26T16:28:37.049Z,1.30
2022-12-26T16:31:04.599Z,1.03
2022-12-26T16:33:42.159Z,1.37
2022-12-26T16:36:10.877Z,1.20
2022-12-26T16:38:38.307Z,1.13
2022-12-26T16:41:22.249Z,1.20
2022-12-26T16:43:53.968Z,1.20
2022-12-26T16:46:24.961Z,1.30
2022-12-26T16:48:59.925Z,1.50
2022-12-26T16:51:50.530Z,1.30
2022-12-26T16:54:26.671Z,1.90
2022-12-26T16:56:58.983Z,3.10
2022-12-26T16:59:29.611Z,2.87
2022-12-26T17:01:58.299Z,1.80
2022-12-26T17:04:26.333Z,2.00
2022-12-26T17:06:59.469Z,2.00
2022-12-26T17:09:28.134Z,1.60
2022-12-26T17:12:07.806Z,1.50
2022-12-26T17:14:39.551Z,1.80
2022-12-26T17:17:26.843Z,2.33
2022-12-26T17:19:55.736Z,1.83
2022-12-26T17:22:29.918Z,2.10
2022-12-26T17:25:15.851Z,3.27
2022-12-26T17:27:43.030Z,1.90
2022-12-26T17:30:30.567Z,1.93
2022-12-26T17:33:06.411Z,1.97
2022-12-26T17:36:02.935Z,2.20
2022-12-26T17:38:24.825Z,2.83
2022-12-26T17:40:56.722Z,2.20
2022-12-26T17:43:26.318Z,1.50
2022-12-26T17:45:53.796Z,2.30
2022-12-26T17:48:21.021Z,1.90
2022-12-26T17:50:49.663Z,1.83
2022-12-26T17:53:23.055Z,7.50
2022-12-26T17:55:51.158Z,2.80
2022-12-26T17:58:19.480Z,3.27
2022-12-26T18:00:46.715Z,2.20
2022-12-26T18:03:14.184Z,3.27
2022-12-26T18:05:41.528Z,2.00
2022-12-26T18:08:09.098Z,2.97
2022-12-26T18:10:37.737Z,3.90
2022-12-26T18:13:05.040Z,5.93
2022-12-26T18:15:32.299Z,2.40
2022-12-26T18:18:00.654Z,2.27
2022-12-26T18:20:29.014Z,2.87
2022-12-26T18:22:57.094Z,1.60
2022-12-26T18:25:25.103Z,1.97
2022-12-26T18:27:52.656Z,1.60
2022-12-26T18:30:21.691Z,1.60
2022-12-26T18:32:49.704Z,1.60
2022-12-26T18:35:17.345Z,10.90
2022-12-26T18:37:46.718Z,2.43
2022-12-26T18:40:26.270Z,5.13
2022-12-26T18:42:53.666Z,5.83
2022-12-26T18:45:21.035Z,3.20
2022-12-26T18:47:48.543Z,3.80
2022-12-26T18:50:16.899Z,5.63
2022-12-26T18:52:46.530Z,2.10
2022-12-26T18:55:17.284Z,2.63
2022-12-26T18:57:44.795Z,5.27
2022-12-26T19:00:16.034Z,3.73
2022-12-26T19:02:43.405Z,3.20
2022-12-26T19:05:19.069Z,2.03
2022-12-26T19:07:48.307Z,1.80
2022-12-26T19:10:16.713Z,2.43
2022-12-26T19:12:44.371Z,1.73
2022-12-26T19:15:12.428Z,1.40
2022-12-26T19:17:41.079Z,2.03
2022-12-26T19:20:09.903Z,1.20
2022-12-26T19:22:37.241Z,1.10
2022-12-26T19:25:06.080Z,1.23
2022-12-26T19:27:33.304Z,0.80
2022-12-26T19:30:00.720Z,0.80
2022-12-26T19:32:28.008Z,1.17
2022-12-26T19:34:56.214Z,1.07
2022-12-26T19:37:23.843Z,0.93
2022-12-26T19:39:51.080Z,1.23
2022-12-26T19:42:18.616Z,1.17
2022-12-26T19:44:45.866Z,1.00
2022-12-26T19:47:13.205Z,1.10
2022-12-26T19:49:41.028Z,1.10
2022-12-26T19:52:08.360Z,1.07
2022-12-26T19:54:35.551Z,1.67
2022-12-26T19:57:02.728Z,1.30
2022-12-26T19:59:29.987Z,1.00
2022-12-26T20:01:57.278Z,0.90
2022-12-26T20:04:24.657Z,0.80
2022-12-26T20:06:52.026Z,1.30
2022-12-26T20:09:19.192Z,0.90
2022-12-26T20:11:51.138Z,3.30
2022-12-26T20:14:19.549Z,1.13
2022-12-26T20:17:09.086Z,1.37
2022-12-26T20:19:36.894Z,1.00
2022-12-26T20:22:04.574Z,1.13
2022-12-26T20:24:32.027Z,1.50
2022-12-26T20:27:00.238Z,1.30
2022-12-26T20:29:27.383Z,1.23
2022-12-26T20:31:55.470Z,1.80
2022-12-26T20:34:23.063Z,1.67
2022-12-26T20:36:50.365Z,2.17
2022-12-26T20:39:19.054Z,1.40
2022-12-26T20:41:46.710Z,1.93
2022-12-26T20:44:14.395Z,1.50
2022-12-26T20:46:41.983Z,1.43
2022-12-26T20:49:10.047Z,1.10
2022-12-26T20:51:38.441Z,1.73
2022-12-26T20:54:09.450Z,1.30
2022-12-26T20:56:36.972Z,1.10
2022-12-26T20:59:04.757Z,1.43
2022-12-26T21:01:32.142Z,1.27
2022-12-26T21:04:00.139Z,2.37
2022-12-26T21:06:32.562Z,1.17
2022-12-26T21:08:59.958Z,0.93
2022-12-26T21:11:28.773Z,1.80
2022-12-26T21:13:59.055Z,1.10
2022-12-26T21:16:37.263Z,0.90
2022-12-26T21:19:08.038Z,1.00
2022-12-26T21:21:40.581Z,1.10
2022-12-26T21:24:09.559Z,1.30
2022-12-26T21:26:37.721Z,2.30
2022-12-26T21:29:06.051Z,1.43
2022-12-26T21:31:33.720Z,2.23
2022-12-26T21:34:01.567Z,1.30
2022-12-26T21:36:29.157Z,1.30
2022-12-26T21:38:57.274Z,1.17
2022-12-26T21:41:24.700Z,1.30
2022-12-26T21:43:51.867Z,1.37
2022-12-26T21:46:20.077Z,1.63
2022-12-26T21:48:47.605Z,1.17
2022-12-26T21:51:15.504Z,2.57
2022-12-26T21:53:43.050Z,4.13
2022-12-26T21:56:11.129Z,2.20
2022-12-26T21:58:57.648Z,2.20
2022-12-26T22:01:26.025Z,1.63
2022-12-26T22:04:12.462Z,2.00
2022-12-26T22:06:40.288Z,2.77
2022-12-26T22:09:08.619Z,1.83
2022-12-26T22:11:54.510Z,2.97
2022-12-26T22:14:22.137Z,4.10
2022-12-26T22:16:53.060Z,1.80
2022-12-26T22:19:20.410Z,5.00
2022-12-26T22:21:47.628Z,3.30
2022-12-26T22:24:15.447Z,4.30
2022-12-26T22:26:42.713Z,2.63
2022-12-26T22:29:10.031Z,2.77
2022-12-26T22:31:38.169Z,2.10
2022-12-26T22:34:05.434Z,3.30
2022-12-26T22:36:34.726Z,1.90
2022-12-26T22:39:02.399Z,2.33
2022-12-26T22:41:29.584Z,1.80
2022-12-26T22:43:56.982Z,3.17
2022-12-26T22:46:24.356Z,2.13
2022-12-26T22:48:51.656Z,2.40
2022-12-26T22:51:20.352Z,3.03
2022-12-26T22:53:48.050Z,1.87
2022-12-26T22:56:15.349Z,2.07
2022-12-26T22:58:42.664Z,2.00
2022-12-26T23:01:27.997Z,2.77
2022-12-26T23:03:55.668Z,3.80
2022-12-26T23:06:24.978Z,2.10
2022-12-26T23:08:56.962Z,4.73
2022-12-26T23:11:30.145Z,3.27
2022-12-26T23:14:01.490Z,3.27
2022-12-26T23:16:39.182Z,2.13
2022-12-26T23:19:31.237Z,1.83
2022-12-26T23:21:59.656Z,1.80
2022-12-26T23:24:27.839Z,2.23
2022-12-26T23:27:17.634Z,3.03
2022-12-26T23:30:04.446Z,1.60
2022-12-26T23:32:31.916Z,2.03
2022-12-26T23:34:59.102Z,1.53
2022-12-26T23:37:26.963Z,4.00
2022-12-26T23:39:54.193Z,9.93
2022-12-26T23:42:21.363Z,4.17
2022-12-26T23:44:48.662Z,2.10
2022-12-26T23:47:15.935Z,1.80
2022-12-26T23:49:43.148Z,2.00
2022-12-26T23:52:10.393Z,1.63
2022-12-26T23:54:37.553Z,2.50
2022-12-26T23:57:05.024Z,2.30
2022-12-26T23:59:32.206Z,1.97
